Terminal Aerodrome Forecast
Issued by NWS

Home | Current Version | Previous Version | Graphics & Text | Print | Product List | Glossary On
Versions: 1 2 3 4 5 6 7 8 9 10 11 12 13 14 15 16 17 18 19
000
FTUS43 KUNR 240520
TAFGCC
TAF
KGCC 240520Z 2406/2506 32016KT 4SM -SN BR SCT008 OVC015
     FM241200 33010KT 6SM -SN BR SCT008 BKN015
     FM241500 32010KT P6SM SCT015 BKN025
     FM241900 36010KT P6SM BKN035=

USA.gov is the U.S. government's official web portal to all federal, state and local government web resources and services.